< < Back
Terminal Aerodrome Forecast


Current Version              Previous Versions:   1  2  3  4  5  6  7  8  9  

Terminal Aerodrome Forecast

904
FTUS44 KOHX 020800 AAA
TAFBNA
TAF AMD
KBNA 020812Z 0208/0306 36007KT 6SM BR BKN006 OVC012
      TEMPO 0208/0212 3SM -DZ BR OVC006
     FM021500 05010KT 6SM BR OVC015
     FM021800 05008KT P6SM BKN050
     FM030200 06004KT P6SM OVC015=



Latest METAR

656
SAUS70 KWBC 021900
MTRBNA
METAR KBNA 021853Z 09004KT 10SM FEW160 SCT200 SCT250 07/M02 A3041 RMK
AO2 SLP301 T00721022


USA.gov is the U.S. government's official web portal to all federal, state and local government web resources and services.